createdAt,value
2022-10-11T00:00:45.827Z,77.40
2022-10-11T00:03:14.677Z,78.00
2022-10-11T00:05:54.610Z,77.90
2022-10-11T00:08:34.038Z,77.88
2022-10-11T00:11:28.358Z,78.30
2022-10-11T00:14:14.686Z,77.27
2022-10-11T00:16:54.526Z,77.25
2022-10-11T00:19:34.155Z,78.02
2022-10-11T00:22:13.613Z,77.46
2022-10-11T00:24:53.037Z,77.54
2022-10-11T00:27:35.096Z,77.43
2022-10-11T00:30:13.689Z,78.74
2022-10-11T00:32:52.952Z,77.56
2022-10-11T00:35:30.925Z,77.86
2022-10-11T00:38:09.232Z,78.38
2022-10-11T00:40:47.333Z,77.90
2022-10-11T00:43:28.549Z,78.15
2022-10-11T00:46:28.836Z,78.42
2022-10-11T00:49:27.904Z,78.43
2022-10-11T00:52:15.724Z,78.36
2022-10-11T00:54:58.570Z,78.47
2022-10-11T00:57:42.099Z,79.51
2022-10-11T01:00:21.193Z,78.76
2022-10-11T01:03:01.008Z,79.17
2022-10-11T01:05:40.268Z,79.26
2022-10-11T01:08:21.054Z,78.93
2022-10-11T01:10:59.828Z,79.21
2022-10-11T01:13:40.666Z,79.40
2022-10-11T01:16:31.315Z,78.68
2022-10-11T01:19:10.711Z,78.53
2022-10-11T01:21:51.962Z,79.08
2022-10-11T01:24:57.468Z,80.05
2022-10-11T01:28:00.568Z,79.78
2022-10-11T01:30:40.036Z,79.94
2022-10-11T01:33:24.709Z,80.22
2022-10-11T01:36:10.132Z,79.89
2022-10-11T01:38:53.937Z,80.96
2022-10-11T01:41:46.453Z,80.37
2022-10-11T01:44:27.100Z,80.30
2022-10-11T01:47:05.599Z,80.44
2022-10-11T01:49:46.190Z,80.50
2022-10-11T01:52:27.647Z,80.61
2022-10-11T01:55:47.420Z,80.59
2022-10-11T01:58:45.333Z,80.05
2022-10-11T02:01:23.314Z,80.12
2022-10-11T02:04:37.333Z,80.78
2022-10-11T02:07:28.586Z,81.18
2022-10-11T02:10:35.618Z,80.69
2022-10-11T02:13:23.485Z,80.38
2022-10-11T02:16:06.952Z,81.30
2022-10-11T02:18:50.269Z,81.48
2022-10-11T02:21:31.977Z,81.45
2022-10-11T02:24:22.489Z,81.50
2022-10-11T02:27:03.580Z,81.68
2022-10-11T02:29:45.548Z,81.30
2022-10-11T02:32:25.739Z,81.23
2022-10-11T02:35:05.430Z,81.02
2022-10-11T02:37:59.197Z,81.72
2022-10-11T02:40:45.188Z,81.90
2022-10-11T02:43:33.141Z,81.84
2022-10-11T02:46:13.077Z,81.91
2022-10-11T02:48:51.496Z,81.46
2022-10-11T02:51:31.996Z,81.49
2022-10-11T02:54:10.792Z,81.88
2022-10-11T02:56:48.836Z,81.66
2022-10-11T02:59:27.083Z,81.23
2022-10-11T03:02:05.532Z,82.21
2022-10-11T03:04:45.020Z,82.63
2022-10-11T03:07:23.345Z,82.91
2022-10-11T03:10:01.413Z,83.24
2022-10-11T03:12:39.769Z,82.17
2022-10-11T03:15:17.819Z,82.49
2022-10-11T03:17:56.329Z,82.67
2022-10-11T03:20:34.244Z,82.59
2022-10-11T03:23:13.537Z,83.25
2022-10-11T03:25:52.355Z,83.53
2022-10-11T03:28:30.615Z,83.07
2022-10-11T03:31:08.658Z,83.28
2022-10-11T03:33:48.838Z,84.13
2022-10-11T03:36:28.281Z,83.27
2022-10-11T03:39:06.727Z,83.06
2022-10-11T03:41:44.605Z,82.76
2022-10-11T03:44:22.915Z,82.27
2022-10-11T03:47:01.037Z,83.50
2022-10-11T03:49:43.461Z,83.14
2022-10-11T03:52:22.294Z,82.89
2022-10-11T03:55:00.751Z,83.16
2022-10-11T03:57:38.823Z,82.83
2022-10-11T04:00:16.989Z,82.39
2022-10-11T04:02:55.095Z,82.60
2022-10-11T04:05:33.548Z,82.44
2022-10-11T04:08:19.899Z,83.72
2022-10-11T04:10:57.965Z,83.17
2022-10-11T04:13:36.782Z,81.69
2022-10-11T04:16:15.916Z,81.49
2022-10-11T04:18:54.092Z,81.50
2022-10-11T04:21:32.238Z,83.11
2022-10-11T04:24:12.000Z,82.57
2022-10-11T04:26:50.203Z,82.84
2022-10-11T04:29:32.351Z,82.88
2022-10-11T04:32:11.410Z,82.93
2022-10-11T04:34:49.818Z,83.20
2022-10-11T04:37:28.097Z,82.36
2022-10-11T04:40:07.579Z,82.39
2022-10-11T04:42:46.336Z,82.16
2022-10-11T04:45:25.717Z,82.80
2022-10-11T04:48:06.296Z,83.04
2022-10-11T04:50:46.081Z,83.42
2022-10-11T04:53:28.489Z,83.86
2022-10-11T04:56:11.265Z,83.41
2022-10-11T04:58:49.732Z,83.15
2022-10-11T05:01:28.930Z,83.60
2022-10-11T05:04:18.198Z,83.59
2022-10-11T05:07:03.461Z,83.61
2022-10-11T05:09:42.076Z,84.36
2022-10-11T05:12:22.108Z,83.78
2022-10-11T05:15:01.219Z,83.91
2022-10-11T05:17:39.658Z,84.52
2022-10-11T05:20:18.905Z,83.33
2022-10-11T05:22:59.371Z,83.88
2022-10-11T05:25:38.823Z,83.57
2022-10-11T05:28:29.979Z,83.65
2022-10-11T05:31:09.818Z,84.30
2022-10-11T05:33:48.762Z,84.22
2022-10-11T05:36:28.342Z,84.64
2022-10-11T05:39:06.949Z,84.57
2022-10-11T05:41:49.322Z,84.58
2022-10-11T05:44:27.583Z,84.49
2022-10-11T05:47:05.911Z,85.06
2022-10-11T05:49:43.918Z,84.49
2022-10-11T05:52:23.398Z,83.99
2022-10-11T05:55:03.427Z,84.62
2022-10-11T05:57:41.919Z,82.64
2022-10-11T06:00:22.998Z,82.94
2022-10-11T06:03:03.012Z,82.52
2022-10-11T06:05:41.494Z,82.64
2022-10-11T06:08:20.993Z,81.42
2022-10-11T06:11:12.294Z,81.01
2022-10-11T06:14:02.421Z,80.37
2022-10-11T06:16:59.168Z,79.86
2022-10-11T06:19:52.251Z,79.19
2022-10-11T06:22:47.576Z,79.21
2022-10-11T06:25:40.540Z,78.41
2022-10-11T06:28:36.691Z,76.92
2022-10-11T06:31:29.014Z,76.75
2022-10-11T06:34:21.890Z,75.58
2022-10-11T06:37:20.370Z,74.41
2022-10-11T06:40:25.142Z,75.03
2022-10-11T06:43:24.878Z,74.33
2022-10-11T06:46:22.915Z,72.49
2022-10-11T06:49:44.366Z,71.83
2022-10-11T06:52:47.761Z,72.39
2022-10-11T06:55:43.721Z,73.22
2022-10-11T06:58:55.210Z,73.23
2022-10-11T07:01:50.393Z,72.56
2022-10-11T07:04:39.474Z,72.09
2022-10-11T07:07:44.492Z,70.94
2022-10-11T07:10:41.009Z,71.05
2022-10-11T07:13:33.325Z,71.09
2022-10-11T07:16:29.605Z,70.49
2022-10-11T07:19:27.419Z,68.87
2022-10-11T07:22:28.156Z,65.64
2022-10-11T07:25:32.236Z,65.63
2022-10-11T07:28:25.816Z,66.06
2022-10-11T07:31:24.870Z,66.62
2022-10-11T07:34:17.705Z,64.96
2022-10-11T07:37:13.815Z,63.32
2022-10-11T07:40:11.411Z,65.15
2022-10-11T07:43:03.932Z,64.58
2022-10-11T07:46:04.995Z,63.72
2022-10-11T07:49:00.854Z,62.95
2022-10-11T07:51:59.987Z,61.45
2022-10-11T07:55:07.922Z,59.71
2022-10-11T07:58:10.984Z,62.12
2022-10-11T08:01:12.091Z,60.70
2022-10-11T08:03:52.475Z,59.77
2022-10-11T08:06:52.463Z,60.15
2022-10-11T08:09:48.306Z,60.62
2022-10-11T08:12:47.522Z,59.68
2022-10-11T08:15:41.320Z,57.56
2022-10-11T08:18:38.353Z,57.57
2022-10-11T08:21:30.780Z,58.36
2022-10-11T08:24:35.982Z,56.85
2022-10-11T08:27:31.911Z,56.14
2022-10-11T08:30:34.039Z,54.68
2022-10-11T08:33:29.794Z,56.41
2022-10-11T08:36:40.289Z,55.13
2022-10-11T08:39:17.132Z,53.27
2022-10-11T08:42:40.760Z,54.29
2022-10-11T08:45:41.591Z,53.44
2022-10-11T08:48:41.964Z,53.58
2022-10-11T08:51:42.147Z,53.33
2022-10-11T08:54:37.896Z,54.33
2022-10-11T08:57:52.344Z,51.87
2022-10-11T09:00:50.387Z,51.63
2022-10-11T09:03:42.873Z,50.38
2022-10-11T09:06:24.099Z,53.33
2022-10-11T09:09:20.521Z,52.92
2022-10-11T09:12:56.619Z,50.39
2022-10-11T09:15:47.062Z,50.29
2022-10-11T09:18:51.070Z,50.57
2022-10-11T09:21:40.799Z,49.02
2022-10-11T09:24:26.875Z,50.03
2022-10-11T09:26:56.890Z,49.58
2022-10-11T09:29:33.717Z,48.68
2022-10-11T09:32:02.030Z,49.69
2022-10-11T09:34:34.295Z,49.01
2022-10-11T09:37:23.717Z,48.86
2022-10-11T09:39:59.042Z,47.62
2022-10-11T09:42:27.171Z,48.05
2022-10-11T09:44:57.421Z,46.79
2022-10-11T09:47:30.469Z,47.50
2022-10-11T09:50:03.643Z,48.41
2022-10-11T09:52:34.411Z,46.84
2022-10-11T09:55:05.710Z,47.36
2022-10-11T09:57:37.771Z,47.49
2022-10-11T10:00:08.724Z,48.42
2022-10-11T10:02:53.922Z,48.48
2022-10-11T10:05:28.139Z,48.63
2022-10-11T10:08:20.539Z,49.13
2022-10-11T10:11:03.932Z,49.58
2022-10-11T10:13:51.998Z,48.80
2022-10-11T10:16:29.233Z,48.31
2022-10-11T10:18:59.839Z,46.42
2022-10-11T10:21:37.778Z,46.73
2022-10-11T10:24:18.802Z,46.43
2022-10-11T10:27:18.697Z,48.02
2022-10-11T10:30:09.895Z,47.54
2022-10-11T10:32:49.056Z,47.30
2022-10-11T10:35:25.853Z,47.15
2022-10-11T10:38:25.566Z,47.19
2022-10-11T10:40:58.419Z,47.61
2022-10-11T10:43:30.460Z,47.76
2022-10-11T10:46:20.188Z,47.68
2022-10-11T10:49:54.176Z,48.42
2022-10-11T10:52:47.882Z,47.49
2022-10-11T10:55:45.391Z,47.58
2022-10-11T10:58:34.443Z,49.40
2022-10-11T11:01:16.063Z,48.68
2022-10-11T11:03:51.305Z,48.88
2022-10-11T11:06:43.209Z,48.39
2022-10-11T11:09:45.890Z,46.53
2022-10-11T11:12:35.643Z,47.91
2022-10-11T11:15:16.007Z,47.75
2022-10-11T11:18:00.952Z,46.24
2022-10-11T11:20:47.403Z,46.85
2022-10-11T11:23:18.305Z,47.12
2022-10-11T11:25:49.171Z,46.63
2022-10-11T11:28:42.031Z,45.95
2022-10-11T11:32:05.801Z,48.91
2022-10-11T11:34:49.897Z,48.66
2022-10-11T11:37:38.410Z,48.96
2022-10-11T11:40:13.827Z,48.74
2022-10-11T11:42:49.000Z,48.05
2022-10-11T11:45:26.531Z,46.99
2022-10-11T11:48:04.343Z,47.99
2022-10-11T11:50:40.159Z,46.90
2022-10-11T11:53:15.822Z,46.78
2022-10-11T11:55:49.470Z,47.37
2022-10-11T11:58:35.735Z,47.15
2022-10-11T12:01:28.800Z,47.16
2022-10-11T12:04:04.905Z,45.94
2022-10-11T12:06:35.921Z,45.91
2022-10-11T12:09:22.912Z,46.02
2022-10-11T12:12:01.607Z,45.53
2022-10-11T12:14:32.248Z,46.11
2022-10-11T12:17:22.704Z,46.43
2022-10-11T12:20:03.495Z,44.61
2022-10-11T12:22:32.375Z,45.60
2022-10-11T12:25:22.069Z,44.13
2022-10-11T12:27:55.023Z,44.08
2022-10-11T12:30:44.509Z,43.68
2022-10-11T12:33:15.257Z,43.00
2022-10-11T12:35:55.118Z,41.11
2022-10-11T12:38:24.331Z,41.60
2022-10-11T12:40:56.264Z,41.04
2022-10-11T12:43:29.560Z,42.51
2022-10-11T12:45:57.323Z,43.25
2022-10-11T12:48:49.768Z,43.78
2022-10-11T12:51:17.734Z,43.58
2022-10-11T12:54:25.635Z,42.59
2022-10-11T12:57:12.460Z,43.16
2022-10-11T12:59:44.881Z,43.13
2022-10-11T13:02:29.199Z,43.75
2022-10-11T13:05:17.144Z,42.66
2022-10-11T13:07:45.338Z,42.37
2022-10-11T13:10:23.082Z,44.18
2022-10-11T13:12:52.174Z,41.75
2022-10-11T13:15:22.324Z,41.76
2022-10-11T13:17:53.048Z,43.09
2022-10-11T13:20:25.660Z,43.19
2022-10-11T13:22:55.914Z,42.47
2022-10-11T13:25:37.667Z,41.62
2022-10-11T13:28:09.074Z,40.74
2022-10-11T13:30:42.362Z,41.53
2022-10-11T13:33:34.842Z,43.06
2022-10-11T13:36:06.506Z,43.39
2022-10-11T13:38:36.668Z,42.36
2022-10-11T13:41:07.287Z,42.92
2022-10-11T13:43:36.072Z,42.28
2022-10-11T13:46:07.297Z,42.50
2022-10-11T13:48:41.069Z,43.32
2022-10-11T13:51:36.125Z,43.51
2022-10-11T13:54:07.797Z,43.29
2022-10-11T13:56:46.320Z,42.78
2022-10-11T13:59:23.824Z,43.56
2022-10-11T14:02:01.315Z,42.84
2022-10-11T14:04:39.522Z,42.20
2022-10-11T14:07:21.814Z,43.19
2022-10-11T14:09:49.577Z,43.26
2022-10-11T14:12:43.442Z,42.76
2022-10-11T14:15:38.154Z,42.78
2022-10-11T14:18:33.679Z,42.33
2022-10-11T14:21:19.520Z,42.76
2022-10-11T14:23:55.107Z,43.06
2022-10-11T14:26:24.443Z,43.32
2022-10-11T14:28:57.545Z,43.18
2022-10-11T14:31:29.956Z,44.11
2022-10-11T14:33:58.447Z,43.68
2022-10-11T14:36:26.351Z,43.75
2022-10-11T14:38:55.233Z,44.93
2022-10-11T14:41:23.132Z,43.93
2022-10-11T14:43:50.819Z,44.00
2022-10-11T14:46:24.532Z,44.16
2022-10-11T14:48:56.499Z,45.22
2022-10-11T14:51:29.606Z,45.09
2022-10-11T14:53:57.322Z,45.69
2022-10-11T14:56:25.183Z,44.92
2022-10-11T14:58:56.051Z,45.98
2022-10-11T15:01:23.862Z,45.68
2022-10-11T15:03:51.891Z,46.82
2022-10-11T15:06:23.222Z,46.41
2022-10-11T15:08:51.224Z,46.35
2022-10-11T15:11:20.767Z,46.61
2022-10-11T15:13:49.179Z,46.38
2022-10-11T15:16:19.778Z,46.91
2022-10-11T15:18:55.856Z,47.17
2022-10-11T15:21:27.892Z,46.98
2022-10-11T15:23:56.368Z,46.79
2022-10-11T15:26:29.806Z,47.04
2022-10-11T15:28:58.224Z,47.17
2022-10-11T15:31:26.001Z,48.13
2022-10-11T15:33:53.704Z,47.42
2022-10-11T15:36:22.586Z,48.56
2022-10-11T15:38:50.465Z,48.38
2022-10-11T15:41:20.151Z,48.08
2022-10-11T15:43:49.198Z,47.89
2022-10-11T15:46:20.769Z,47.90
2022-10-11T15:48:50.028Z,48.46
2022-10-11T15:51:18.048Z,48.02
2022-10-11T15:53:46.520Z,48.15
2022-10-11T15:56:19.245Z,47.76
2022-10-11T15:58:47.116Z,48.20
2022-10-11T16:01:17.633Z,48.80
2022-10-11T16:03:47.466Z,48.81
2022-10-11T16:06:16.287Z,48.46
2022-10-11T16:08:44.771Z,48.09
2022-10-11T16:11:15.314Z,48.27
2022-10-11T16:13:43.101Z,48.47
2022-10-11T16:16:11.948Z,48.75
2022-10-11T16:18:39.986Z,48.83
2022-10-11T16:21:10.688Z,48.74
2022-10-11T16:23:40.474Z,48.98
2022-10-11T16:26:12.144Z,49.30
2022-10-11T16:28:40.185Z,50.04
2022-10-11T16:31:10.365Z,49.90
2022-10-11T16:33:47.900Z,49.95
2022-10-11T16:36:36.823Z,49.98
2022-10-11T16:39:08.053Z,50.00
2022-10-11T16:41:36.282Z,49.73
2022-10-11T16:44:04.662Z,49.34
2022-10-11T16:46:32.875Z,49.04
2022-10-11T16:49:01.910Z,49.43
2022-10-11T16:51:33.143Z,49.32
2022-10-11T16:54:01.900Z,48.98
2022-10-11T16:56:30.941Z,48.58
2022-10-11T16:58:59.550Z,49.20
2022-10-11T17:01:27.739Z,48.57
2022-10-11T17:03:57.049Z,49.19
2022-10-11T17:06:25.118Z,50.10
2022-10-11T17:08:53.246Z,49.22
2022-10-11T17:11:22.532Z,49.62
2022-10-11T17:13:53.481Z,49.46
2022-10-11T17:16:22.642Z,49.42
2022-10-11T17:18:50.452Z,50.00
2022-10-11T17:21:19.997Z,50.40
2022-10-11T17:23:49.270Z,50.89
2022-10-11T17:26:26.325Z,51.50
2022-10-11T17:28:58.784Z,51.92
2022-10-11T17:31:28.149Z,52.33
2022-10-11T17:33:59.193Z,53.61
2022-10-11T17:36:36.361Z,53.80
2022-10-11T17:39:17.424Z,54.46
2022-10-11T17:41:46.147Z,54.83
2022-10-11T17:44:17.489Z,55.52
2022-10-11T17:46:46.197Z,56.41
2022-10-11T17:49:14.196Z,57.39
2022-10-11T17:51:43.341Z,57.29
2022-10-11T17:54:13.066Z,57.05
2022-10-11T17:56:42.278Z,57.69
2022-10-11T17:59:16.909Z,58.75
2022-10-11T18:01:44.948Z,59.18
2022-10-11T18:04:16.863Z,60.21
2022-10-11T18:06:47.540Z,60.64
2022-10-11T18:09:17.422Z,60.41
2022-10-11T18:11:46.192Z,60.57
2022-10-11T18:14:14.183Z,60.67
2022-10-11T18:16:42.898Z,60.53
2022-10-11T18:19:12.828Z,60.58
2022-10-11T18:21:40.990Z,61.48
2022-10-11T18:24:33.497Z,60.82
2022-10-11T18:27:01.754Z,62.65
2022-10-11T18:29:29.448Z,62.12
2022-10-11T18:32:07.051Z,62.18
2022-10-11T18:34:35.841Z,63.26
2022-10-11T18:37:04.100Z,63.72
2022-10-11T18:39:31.814Z,63.54
2022-10-11T18:42:02.118Z,63.59
2022-10-11T18:44:35.509Z,64.41
2022-10-11T18:47:03.739Z,64.89
2022-10-11T18:49:31.372Z,65.14
2022-10-11T18:51:59.081Z,65.57
2022-10-11T18:54:27.350Z,66.85
2022-10-11T18:56:55.703Z,67.18
2022-10-11T18:59:25.189Z,67.10
2022-10-11T19:02:26.278Z,68.39
2022-10-11T19:04:54.578Z,69.08
2022-10-11T19:07:23.487Z,69.36
2022-10-11T19:09:54.713Z,70.41
2022-10-11T19:12:23.763Z,68.85
2022-10-11T19:14:52.353Z,69.42
2022-10-11T19:17:23.224Z,70.55
2022-10-11T19:19:51.590Z,70.26
2022-10-11T19:22:19.594Z,70.02
2022-10-11T19:24:50.069Z,70.28
2022-10-11T19:27:18.777Z,71.07
2022-10-11T19:29:47.140Z,70.61
2022-10-11T19:32:15.158Z,71.62
2022-10-11T19:34:43.400Z,72.29
2022-10-11T19:37:13.510Z,72.91
2022-10-11T19:39:42.959Z,72.13
2022-10-11T19:42:10.945Z,72.76
2022-10-11T19:44:39.945Z,73.41
2022-10-11T19:47:07.977Z,73.25
2022-10-11T19:49:36.372Z,73.76
2022-10-11T19:52:04.409Z,73.75
2022-10-11T19:54:32.642Z,73.88
2022-10-11T19:57:00.641Z,74.14
2022-10-11T19:59:28.877Z,74.50
2022-10-11T20:01:56.711Z,74.45
2022-10-11T20:04:51.213Z,74.67
2022-10-11T20:07:13.203Z,74.58
2022-10-11T20:09:40.985Z,74.95
2022-10-11T20:12:09.376Z,74.25
2022-10-11T20:14:37.332Z,75.13
2022-10-11T20:17:05.195Z,74.81
2022-10-11T20:19:33.029Z,75.44
2022-10-11T20:22:01.467Z,75.10
2022-10-11T20:24:34.702Z,75.07
2022-10-11T20:27:04.917Z,74.89
2022-10-11T20:29:32.825Z,75.36
2022-10-11T20:32:00.863Z,74.85
2022-10-11T20:34:28.869Z,75.11
2022-10-11T20:36:56.838Z,74.86
2022-10-11T20:39:24.984Z,74.92
2022-10-11T20:41:52.936Z,74.83
2022-10-11T20:44:20.961Z,75.51
2022-10-11T20:46:54.407Z,75.27
2022-10-11T20:49:24.327Z,76.09
2022-10-11T20:51:52.236Z,75.41
2022-10-11T20:54:20.138Z,75.89
2022-10-11T20:56:48.573Z,76.35
2022-10-11T20:59:16.456Z,76.08
2022-10-11T21:01:44.476Z,76.38
2022-10-11T21:04:18.929Z,76.11
2022-10-11T21:06:48.667Z,76.60
2022-10-11T21:09:17.545Z,76.14
2022-10-11T21:11:45.554Z,77.04
2022-10-11T21:14:13.547Z,76.50
2022-10-11T21:16:41.322Z,77.21
2022-10-11T21:19:13.689Z,77.10
2022-10-11T21:21:41.992Z,77.79
2022-10-11T21:24:10.251Z,78.10
2022-10-11T21:26:38.083Z,77.91
2022-10-11T21:29:05.980Z,78.29
2022-10-11T21:31:34.639Z,78.44
2022-10-11T21:34:05.496Z,78.12
2022-10-11T21:36:33.824Z,78.00
2022-10-11T21:39:01.874Z,78.07
2022-10-11T21:41:30.421Z,78.15
2022-10-11T21:43:58.839Z,77.80
2022-10-11T21:49:20.001Z,78.63
2022-10-11T21:51:47.836Z,78.35
2022-10-11T21:54:16.261Z,78.71
2022-10-11T21:56:44.416Z,79.56
2022-10-11T21:59:12.936Z,78.71
2022-10-11T22:01:42.004Z,78.29
2022-10-11T22:04:10.964Z,78.63
2022-10-11T22:06:39.455Z,79.30
2022-10-11T22:09:08.489Z,79.01
2022-10-11T22:11:37.049Z,78.28
2022-10-11T22:14:04.938Z,78.70
2022-10-11T22:16:33.699Z,78.28
2022-10-11T22:19:01.520Z,78.49
2022-10-11T22:21:29.489Z,78.71
2022-10-11T22:23:57.583Z,79.18
2022-10-11T22:26:30.161Z,79.38
2022-10-11T22:29:00.050Z,78.83
2022-10-11T22:31:28.887Z,79.07
2022-10-11T22:33:58.754Z,79.21
2022-10-11T22:36:27.746Z,79.28
2022-10-11T22:38:55.515Z,79.34
2022-10-11T22:41:23.506Z,79.12
2022-10-11T22:43:51.727Z,80.37
2022-10-11T22:46:19.528Z,79.50
2022-10-11T22:48:47.348Z,78.88
2022-10-11T22:51:15.250Z,79.09
2022-10-11T22:53:43.222Z,79.00
2022-10-11T22:56:11.482Z,79.21
2022-10-11T22:58:39.341Z,79.14
2022-10-11T23:01:12.474Z,79.78
2022-10-11T23:03:40.352Z,80.00
2022-10-11T23:06:08.545Z,80.47
2022-10-11T23:08:36.351Z,80.78
2022-10-11T23:11:05.796Z,80.86
2022-10-11T23:13:33.888Z,81.05
2022-10-11T23:16:06.324Z,80.40
2022-10-11T23:18:34.276Z,80.16
2022-10-11T23:21:02.682Z,80.35
2022-10-11T23:23:30.872Z,79.82
2022-10-11T23:26:07.875Z,79.78
2022-10-11T23:28:35.821Z,79.85
2022-10-11T23:31:13.794Z,79.60
2022-10-11T23:33:41.538Z,79.56
2022-10-11T23:36:18.100Z,79.39
2022-10-11T23:38:49.596Z,79.02
2022-10-11T23:41:17.437Z,79.45
2022-10-11T23:43:45.228Z,79.73
2022-10-11T23:46:13.065Z,79.00
2022-10-11T23:48:40.969Z,79.81
2022-10-11T23:51:09.154Z,79.50
2022-10-11T23:53:37.745Z,79.93
2022-10-11T23:56:07.011Z,80.06
2022-10-11T23:58:35.059Z,80.56
